Time;durP1;ratioP1;P1;durP2;ratioP2;P2;SDS_P1;SDS_P2;PMS_P1;PMS_P2;Temp;Humidity;BMP_temperature;BMP_pressure;BME280_temperature;BME280_humidity;BME280_pressure;Samples;Min_cycle;Max_cycle;Signal;HPM_P1;HPM_P2
2023/12/08 00:01:48;;;;;;;;;;;;;;;2.19;94.76;101326.13;4171852;28;19932;-89
2023/12/08 00:04:09;;;;;;;;;;;;;;;2.19;94.74;101325.28;4158097;28;19968;-90
2023/12/08 00:06:30;;;;;;;;;;;;;;;2.18;94.77;101324.44;4146525;28;20441;-90
2023/12/08 00:08:51;;;;;;;;;;;;;;;2.18;94.93;101319.13;4188005;28;19935;-89
2023/12/08 00:11:12;;;;;;;;;;;;;;;2.20;94.83;101311.00;4187534;28;19932;-91
2023/12/08 00:13:32;;;;;;;;;;;;;;;2.19;94.98;101301.31;4187661;28;20287;-90
2023/12/08 00:16:11;;;;;;;;;;;;;;;2.19;94.66;101311.97;4156604;28;19948;-91
2023/12/08 00:18:32;;;;;;;;;;;;;;;2.17;94.66;101306.75;4173405;28;19932;-90
2023/12/08 00:20:54;;;;;;;;;;;;;;;2.17;94.89;101304.09;4187843;28;19935;-91
2023/12/08 00:23:17;;;;;;;;;;;;;;;2.17;94.88;101320.06;4154191;28;19941;-90
2023/12/08 00:25:38;;;;;;;;;;;;;;;2.16;94.93;101318.34;4185550;28;19971;-90
2023/12/08 00:27:58;;;;;;;;;;;;;;;2.16;94.69;101319.22;4173790;28;19931;-90
2023/12/08 00:30:20;;;;;;;;;;;;;;;2.17;94.80;101317.41;4173047;28;20048;-89
2023/12/08 00:32:43;;;;;;;;;;;;;;;2.16;94.69;101321.03;4187951;28;19932;-90
2023/12/08 00:35:03;;;;;;;;;;;;;;;2.14;94.85;101310.47;4187327;28;20295;-91
2023/12/08 00:37:25;;;;;;;;;;;;;;;2.13;95.00;101310.56;4169397;28;19988;-90
2023/12/08 00:39:45;;;;;;;;;;;;;;;2.12;94.98;101308.91;4170034;28;19931;-90
2023/12/08 00:42:06;;;;;;;;;;;;;;;2.11;94.99;101310.69;4162349;28;19935;-88
2023/12/08 00:44:27;;;;;;;;;;;;;;;2.11;94.97;101313.34;4170861;28;20713;-89
2023/12/08 00:46:48;;;;;;;;;;;;;;;2.10;94.91;101314.34;4172254;28;19967;-89
2023/12/08 00:49:10;;;;;;;;;;;;;;;2.11;94.92;101310.69;4186482;28;19930;-88
2023/12/08 00:51:31;;;;;;;;;;;;;;;2.13;94.99;101310.56;4171437;28;19987;-89
2023/12/08 00:53:52;;;;;;;;;;;;;;;2.11;94.77;101304.50;4189190;28;20318;-88
2023/12/08 00:56:12;;;;;;;;;;;;;;;2.11;94.82;101292.03;4184554;28;19972;-89
2023/12/08 00:58:33;;;;;;;;;;;;;;;2.12;94.99;101287.56;4188081;28;19978;-90
2023/12/08 01:00:56;;;;;;;;;;;;;;;2.12;95.03;101279.56;4177264;28;19979;-89
2023/12/08 01:03:17;;;;;;;;;;;;;;;2.16;94.94;101284.59;4190014;28;20017;-89
2023/12/08 01:05:40;;;;;;;;;;;;;;;2.10;94.80;101274.34;4157856;28;19972;-90
2023/12/08 01:08:01;;;;;;;;;;;;;;;2.14;94.54;101283.81;4161141;28;20017;-91
2023/12/08 01:10:21;;;;;;;;;;;;;;;2.12;94.82;101279.56;4194359;28;19935;-89
2023/12/08 01:12:43;;;;;;;;;;;;;;;2.13;95.12;101284.81;4181640;28;20039;-90
2023/12/08 01:15:05;;;;;;;;;;;;;;;2.15;94.61;101284.69;4157899;28;19943;-90
2023/12/08 01:17:26;;;;;;;;;;;;;;;2.15;94.69;101288.19;4187795;28;19935;-87
2023/12/08 01:19:47;;;;;;;;;;;;;;;2.14;94.60;101282.97;4166894;28;19952;-91
2023/12/08 01:22:09;;;;;;;;;;;;;;;2.14;94.65;101280.31;4170941;28;19992;-90
2023/12/08 01:24:30;;;;;;;;;;;;;;;2.13;94.84;101290.13;4176311;28;20422;-88
2023/12/08 01:26:50;;;;;;;;;;;;;;;2.12;94.67;101288.41;4173051;28;19932;-88
2023/12/08 01:29:12;;;;;;;;;;;;;;;2.12;94.81;101283.09;4175352;28;19984;-89
2023/12/08 01:31:33;;;;;;;;;;;;;;;2.14;94.57;101281.16;4149241;28;19960;-89
2023/12/08 01:33:53;;;;;;;;;;;;;;;2.11;94.64;101281.38;4161642;28;19932;-89
2023/12/08 01:36:14;;;;;;;;;;;;;;;2.11;94.84;101275.19;4165760;28;20520;-91
2023/12/08 01:38:37;;;;;;;;;;;;;;;2.11;94.74;101273.38;4189775;28;20014;-92
2023/12/08 01:40:57;;;;;;;;;;;;;;;2.10;94.81;101271.69;4178145;28;19999;-88
2023/12/08 01:43:18;;;;;;;;;;;;;;;2.12;95.00;101269.75;4158804;28;19980;-87
2023/12/08 01:45:39;;;;;;;;;;;;;;;2.11;95.04;101261.88;4190290;28;19947;-88
2023/12/08 01:48:00;;;;;;;;;;;;;;;2.11;94.89;101256.53;4175007;28;19955;-90
2023/12/08 01:50:21;;;;;;;;;;;;;;;2.14;94.99;101251.84;4177811;28;20067;-91
2023/12/08 01:52:42;;;;;;;;;;;;;;;2.13;94.97;101250.16;4159190;28;19936;-91
2023/12/08 01:55:04;;;;;;;;;;;;;;;2.14;94.74;101249.19;4176754;28;20008;-92
2023/12/08 01:57:25;;;;;;;;;;;;;;;2.12;94.98;101253.78;4174552;28;19982;-89
2023/12/08 01:59:45;;;;;;;;;;;;;;;2.12;94.93;101245.78;4193371;28;19970;-90
2023/12/08 02:02:06;;;;;;;;;;;;;;;2.11;95.00;101249.41;4163173;28;20402;-89
2023/12/08 02:04:27;;;;;;;;;;;;;;;2.11;94.76;101246.72;4146943;28;19936;-89
2023/12/08 02:06:48;;;;;;;;;;;;;;;2.12;94.87;101237.78;4188460;28;19978;-90
2023/12/08 02:09:09;;;;;;;;;;;;;;;2.13;94.82;101233.28;4168616;28;19979;-90
2023/12/08 02:11:34;;;;;;;;;;;;;;;2.15;94.65;101239.38;4163484;28;19956;-90
2023/12/08 02:13:54;;;;;;;;;;;;;;;2.15;94.73;101239.38;4174934;28;20410;-90
2023/12/08 02:16:17;;;;;;;;;;;;;;;2.15;94.69;101234.06;4148405;28;19980;-90
2023/12/08 02:18:37;;;;;;;;;;;;;;;2.15;94.75;101226.06;4171217;28;19935;-90
2023/12/08 02:20:59;;;;;;;;;;;;;;;2.15;94.53;101224.25;4190685;28;19951;-91
2023/12/08 02:23:20;;;;;;;;;;;;;;;2.16;94.85;101225.09;4158525;28;20017;-89
2023/12/08 02:25:44;;;;;;;;;;;;;;;2.16;94.58;101220.63;4167539;28;20414;-89
2023/12/08 02:28:08;;;;;;;;;;;;;;;2.21;94.54;101222.09;4159222;28;20038;-89
2023/12/08 02:30:31;;;;;;;;;;;;;;;2.19;94.58;101216.88;4179840;28;19975;-89
2023/12/08 02:32:53;;;;;;;;;;;;;;;2.21;94.62;101208.75;4175992;28;19952;-89
2023/12/08 02:35:14;;;;;;;;;;;;;;;2.21;94.23;101198.09;4160977;28;19931;-89
2023/12/08 02:37:36;;;;;;;;;;;;;;;2.22;94.41;101197.16;4169835;28;19939;-88
2023/12/08 02:39:56;;;;;;;;;;;;;;;2.21;94.35;101204.31;4178188;28;20323;-89
2023/12/08 02:42:21;;;;;;;;;;;;;;;2.21;94.43;101206.97;4163218;28;20430;-89
2023/12/08 02:44:42;;;;;;;;;;;;;;;2.21;94.48;101208.75;4184466;28;19932;-88
2023/12/08 02:47:02;;;;;;;;;;;;;;;2.23;94.30;101207.69;4159485;28;19995;-89
2023/12/08 02:49:23;;;;;;;;;;;;;;;2.24;94.29;101203.22;4177945;28;20019;-91
2023/12/08 02:51:44;;;;;;;;;;;;;;;2.23;94.49;101197.03;4169028;28;19971;-90
2023/12/08 02:54:05;;;;;;;;;;;;;;;2.25;94.37;101191.59;4163188;28;19996;-91
2023/12/08 02:56:25;;;;;;;;;;;;;;;2.24;94.12;101189.88;4181087;28;19939;-92
2023/12/08 02:58:47;;;;;;;;;;;;;;;2.26;94.05;101190.66;4190011;28;19932;-92
2023/12/08 03:01:08;;;;;;;;;;;;;;;2.26;94.30;101182.66;4204599;28;19936;-91
2023/12/08 03:03:29;;;;;;;;;;;;;;;2.28;94.24;101186.03;4202628;28;19931;-93
2023/12/08 03:05:50;;;;;;;;;;;;;;;2.28;93.93;101178.88;4180792;28;19949;-90
2023/12/08 03:08:11;;;;;;;;;;;;;;;2.27;94.03;101173.66;4207078;28;19939;-91
2023/12/08 03:10:46;;;;;;;;;;;;;;;2.30;94.05;101176.09;4166294;28;19917;-93
2023/12/08 03:13:07;;;;;;;;;;;;;;;2.31;94.04;101170.66;4175202;28;19951;-89
2023/12/08 03:15:31;;;;;;;;;;;;;;;2.32;93.73;101171.50;4158831;28;19932;-89
2023/12/08 03:17:52;;;;;;;;;;;;;;;2.33;93.78;101173.22;4179158;28;19931;-89
2023/12/08 03:20:37;;;;;;;;;;;;;;;2.34;93.67;101169.59;4195746;28;19947;-89
2023/12/08 03:22:59;;;;;;;;;;;;;;;2.33;93.26;101163.41;4171315;28;19932;-91
2023/12/08 03:25:20;;;;;;;;;;;;;;;2.34;93.28;101167.78;4151391;28;20412;-90
2023/12/08 03:27:41;;;;;;;;;;;;;;;2.35;93.46;101171.28;4152928;28;19931;-92
2023/12/08 03:30:02;;;;;;;;;;;;;;;2.36;93.54;101164.16;4152011;28;20411;-91
2023/12/08 03:32:27;;;;;;;;;;;;;;;2.36;93.42;101154.34;4140567;28;19957;-90
2023/12/08 03:34:46;;;;;;;;;;;;;;;2.37;92.97;101149.84;4164023;28;19931;-90
2023/12/08 03:37:07;;;;;;;;;;;;;;;2.37;92.94;101153.38;4158394;28;19932;-91
2023/12/08 03:39:28;;;;;;;;;;;;;;;2.39;92.93;101148.78;4171647;28;20334;-92
2023/12/08 03:41:49;;;;;;;;;;;;;;;2.39;92.87;101143.44;4191913;28;20035;-92
2023/12/08 03:44:10;;;;;;;;;;;;;;;2.40;92.94;101142.50;4163125;28;19991;-90
2023/12/08 03:46:30;;;;;;;;;;;;;;;2.39;93.02;101140.78;4173423;28;19944;-89
2023/12/08 03:48:55;;;;;;;;;;;;;;;2.39;92.86;101139.94;4162128;28;19983;-90
2023/12/08 03:51:16;;;;;;;;;;;;;;;2.41;92.63;101130.84;4172342;28;20307;-90
2023/12/08 03:53:37;;;;;;;;;;;;;;;2.42;92.25;101140.56;4175117;28;20040;-88
2023/12/08 03:55:58;;;;;;;;;;;;;;;2.41;92.48;101122.84;4154814;28;19932;-90
2023/12/08 03:58:19;;;;;;;;;;;;;;;2.39;92.66;101119.44;4189910;28;19935;-89
2023/12/08 04:00:40;;;;;;;;;;;;;;;2.40;92.56;101121.16;4159461;28;19932;-90
2023/12/08 04:03:01;;;;;;;;;;;;;;;2.40;92.48;101126.50;4189854;28;19936;-88
2023/12/08 04:05:23;;;;;;;;;;;;;;;2.40;92.77;101121.16;4189883;28;19967;-91
2023/12/08 04:07:44;;;;;;;;;;;;;;;2.40;92.63;101126.50;4171677;28;20390;-90
2023/12/08 04:10:05;;;;;;;;;;;;;;;2.42;92.69;101121.03;4158305;28;19999;-93
2023/12/08 04:12:26;;;;;;;;;;;;;;;2.42;92.43;101119.22;4163425;28;19936;-92
2023/12/08 04:14:46;;;;;;;;;;;;;;;2.43;92.39;101112.94;4168825;28;19976;-91
2023/12/08 04:17:07;;;;;;;;;;;;;;;2.43;92.53;101114.72;4157623;28;19976;-91
2023/12/08 04:19:28;;;;;;;;;;;;;;;2.43;92.40;101117.41;4173473;28;20279;-90
2023/12/08 04:21:51;;;;;;;;;;;;;;;2.42;92.38;101121.03;4163439;28;20726;-91
2023/12/08 04:24:13;;;;;;;;;;;;;;;2.42;92.88;101105.91;4190319;28;20414;-90
2023/12/08 04:27:06;;;;;;;;;;;;;;;2.42;92.65;101089.06;4172637;28;20471;-91
2023/12/08 04:29:27;;;;;;;;;;;;;;;2.42;92.67;101084.56;4186252;28;19936;-91
2023/12/08 04:31:51;;;;;;;;;;;;;;;2.43;92.32;101080.06;4191842;28;19935;-87
2023/12/08 04:34:11;;;;;;;;;;;;;;;2.45;92.28;101071.00;4180531;28;20371;-88
2023/12/08 04:36:32;;;;;;;;;;;;;;;2.45;92.06;101065.66;4159680;28;19933;-88
2023/12/08 04:38:54;;;;;;;;;;;;;;;2.44;91.97;101061.28;4170597;28;19975;-88
2023/12/08 04:41:15;;;;;;;;;;;;;;;2.45;92.10;101060.34;4176268;28;19979;-90
2023/12/08 04:43:36;;;;;;;;;;;;;;;2.44;92.06;101042.63;4172043;28;19940;-91
2023/12/08 04:45:56;;;;;;;;;;;;;;;2.44;92.33;101039.13;4155443;28;19936;-90
2023/12/08 04:48:17;;;;;;;;;;;;;;;2.43;92.13;101027.63;4158172;28;19932;-88
2023/12/08 04:50:38;;;;;;;;;;;;;;;2.44;92.23;101031.97;4170866;28;19991;-90
2023/12/08 04:52:58;;;;;;;;;;;;;;;2.44;92.18;101028.47;4147004;28;19932;-93
2023/12/08 04:55:21;;;;;;;;;;;;;;;2.44;92.41;101031.13;4188917;28;19936;-93
2023/12/08 04:57:42;;;;;;;;;;;;;;;2.44;92.15;101031.13;4172058;28;19931;-93
2023/12/08 05:00:03;;;;;;;;;;;;;;;2.43;92.39;101032.97;4168942;28;19980;-91
2023/12/08 05:02:24;;;;;;;;;;;;;;;2.43;92.16;101035.63;4166206;28;19979;-90
2023/12/08 05:04:45;;;;;;;;;;;;;;;2.43;92.28;101034.75;4164162;28;19932;-92
2023/12/08 05:07:06;;;;;;;;;;;;;;;2.43;92.29;101050.75;4157615;28;20331;-92
2023/12/08 05:09:33;;;;;;;;;;;;;;;2.41;92.47;101048.19;4174420;28;20048;-92
2023/12/08 05:12:07;;;;;;;;;;;;;;;2.40;92.45;101050.97;4173624;28;19936;-89
2023/12/08 05:14:28;;;;;;;;;;;;;;;2.41;92.53;101050.03;4185829;28;19983;-89
2023/12/08 05:16:48;;;;;;;;;;;;;;;2.42;92.41;101057.06;4173977;28;19935;-89
2023/12/08 05:19:09;;;;;;;;;;;;;;;2.42;92.64;101055.25;4172876;28;19931;-91
2023/12/08 05:21:30;;;;;;;;;;;;;;;2.39;92.67;101051.97;4169762;28;19936;-90
2023/12/08 05:23:50;;;;;;;;;;;;;;;2.38;92.54;101051.09;4184898;28;20275;-89
2023/12/08 05:26:11;;;;;;;;;;;;;;;2.39;92.55;101047.47;4175216;28;19980;-89
2023/12/08 05:28:33;;;;;;;;;;;;;;;2.36;92.56;101041.53;4172526;28;20008;-90
2023/12/08 05:30:57;;;;;;;;;;;;;;;2.35;92.86;101051.31;4157807;28;19932;-90
2023/12/08 05:33:18;;;;;;;;;;;;;;;2.34;92.93;101063.81;4172923;28;20039;-89
2023/12/08 05:35:39;;;;;;;;;;;;;;;2.34;92.67;101066.47;4158902;28;20426;-89
2023/12/08 05:38:00;;;;;;;;;;;;;;;2.33;92.87;101059.44;4171742;28;19939;-90
2023/12/08 05:40:21;;;;;;;;;;;;;;;2.31;93.03;101058.72;4155922;28;19948;-89
2023/12/08 05:42:42;;;;;;;;;;;;;;;2.30;92.82;101057.03;4172014;28;20335;-90
2023/12/08 05:45:06;;;;;;;;;;;;;;;2.31;92.89;101064.03;4173092;28;19964;-90
2023/12/08 05:47:27;;;;;;;;;;;;;;;2.31;93.24;101060.53;4161606;28;20301;-90
2023/12/08 05:49:53;;;;;;;;;;;;;;;2.30;92.89;101065.03;4178630;28;19947;-91
2023/12/08 05:52:14;;;;;;;;;;;;;;;2.32;92.97;101056.88;4169008;28;20311;-90
2023/12/08 05:54:35;;;;;;;;;;;;;;;2.31;92.87;101049.88;4170286;28;20040;-89
2023/12/08 05:56:58;;;;;;;;;;;;;;;2.31;92.95;101048.06;4173420;28;19931;-89
2023/12/08 05:59:19;;;;;;;;;;;;;;;2.30;92.66;101070.38;4171983;28;19939;-87
2023/12/08 06:01:42;;;;;;;;;;;;;;;2.31;92.76;101064.03;4169430;28;20287;-88
2023/12/08 06:04:03;;;;;;;;;;;;;;;2.33;92.70;101058.59;4176546;28;20366;-89
2023/12/08 06:06:28;;;;;;;;;;;;;;;2.32;92.69;101048.88;4169244;28;20318;-87
2023/12/08 06:08:48;;;;;;;;;;;;;;;2.34;92.68;101054.97;4188955;28;20283;-89
2023/12/08 06:11:11;;;;;;;;;;;;;;;2.35;92.48;101059.31;4195559;28;20475;-88
2023/12/08 06:13:32;;;;;;;;;;;;;;;2.32;92.61;101057.75;4177527;28;20015;-89
2023/12/08 06:15:56;;;;;;;;;;;;;;;2.31;92.59;101056.03;4171713;28;19936;-86
2023/12/08 06:18:22;;;;;;;;;;;;;;;2.30;92.68;101065.03;4153616;28;19977;-91
2023/12/08 06:21:41;;;;;;;;;;;;;;;2.30;92.67;101059.69;4179900;28;20448;-91
2023/12/08 06:24:05;;;;;;;;;;;;;;;2.31;92.71;101061.38;4192196;28;19978;-90
2023/12/08 06:26:27;;;;;;;;;;;;;;;2.30;92.41;101062.38;4182695;28;19939;-90
2023/12/08 06:28:49;;;;;;;;;;;;;;;2.28;92.72;101048.28;4179747;28;20087;-88
2023/12/08 06:31:51;;;;;;;;;;;;;;;2.28;92.32;101029.63;4162341;28;19980;-91
2023/12/08 06:34:14;;;;;;;;;;;;;;;2.28;92.41;101024.28;4164380;28;19988;-92
2023/12/08 06:36:35;;;;;;;;;;;;;;;2.28;92.28;101024.28;4182408;28;19987;-88
2023/12/08 06:38:56;;;;;;;;;;;;;;;2.25;92.55;101021.03;4176763;28;19975;-90
2023/12/08 06:41:20;;;;;;;;;;;;;;;2.28;92.54;101034.13;4161127;28;19981;-91
2023/12/08 06:43:41;;;;;;;;;;;;;;;2.26;92.52;101031.56;4180096;28;19940;-93
2023/12/08 06:46:02;;;;;;;;;;;;;;;2.24;92.18;101030.84;4162752;28;20373;-89
2023/12/08 06:48:23;;;;;;;;;;;;;;;2.23;92.34;101030.97;4186289;28;19971;-89
2023/12/08 06:50:45;;;;;;;;;;;;;;;2.23;92.30;101018.47;4159873;28;19979;-90
2023/12/08 06:53:06;;;;;;;;;;;;;;;2.22;92.09;101010.59;4183763;28;19932;-90
2023/12/08 06:55:27;;;;;;;;;;;;;;;2.22;92.02;101007.94;4147257;28;19985;-89
2023/12/08 06:57:49;;;;;;;;;;;;;;;2.20;91.95;101009.88;4160290;28;20048;-89
2023/12/08 07:00:11;;;;;;;;;;;;;;;2.16;92.04;101011.88;4170303;28;19935;-88
2023/12/08 07:02:32;;;;;;;;;;;;;;;2.17;92.06;101025.09;4152477;28;19971;-91
2023/12/08 07:04:52;;;;;;;;;;;;;;;2.16;91.91;101031.41;4181740;28;20383;-90
2023/12/08 07:07:16;;;;;;;;;;;;;;;2.19;91.89;101035.66;4174698;28;19931;-89
2023/12/08 07:09:37;;;;;;;;;;;;;;;2.16;91.74;101028.75;4167568;28;19939;-90
2023/12/08 07:11:57;;;;;;;;;;;;;;;2.15;91.57;101021.72;4167201;28;20446;-90
2023/12/08 07:14:18;;;;;;;;;;;;;;;2.14;91.61;101020.00;4171348;28;19960;-90
2023/12/08 07:16:38;;;;;;;;;;;;;;;2.12;91.70;101021.09;4182233;28;20023;-89
2023/12/08 07:18:59;;;;;;;;;;;;;;;2.10;91.81;101017.69;4182920;28;19935;-89
2023/12/08 07:21:22;;;;;;;;;;;;;;;2.11;91.71;101020.22;4163474;28;19932;-86
2023/12/08 07:23:44;;;;;;;;;;;;;;;2.09;91.59;101014.19;4175911;28;20446;-87
2023/12/08 07:26:05;;;;;;;;;;;;;;;2.10;91.81;101012.34;4174910;28;19982;-87
2023/12/08 07:28:25;;;;;;;;;;;;;;;2.08;91.72;101004.47;4187527;28;20322;-86
2023/12/08 07:30:46;;;;;;;;;;;;;;;2.08;91.66;101006.31;4172838;28;19973;-88
2023/12/08 07:33:08;;;;;;;;;;;;;;;2.06;91.54;101003.75;4171773;28;20298;-87
2023/12/08 07:35:28;;;;;;;;;;;;;;;2.07;91.44;101004.59;4184924;28;19975;-85
2023/12/08 07:37:49;;;;;;;;;;;;;;;2.09;91.57;101010.66;4187293;28;19935;-85
2023/12/08 07:40:12;;;;;;;;;;;;;;;2.07;91.43;101015.25;4172645;28;20443;-87
2023/12/08 07:42:32;;;;;;;;;;;;;;;2.05;90.99;101011.84;4186778;28;19931;-83
2023/12/08 07:44:53;;;;;;;;;;;;;;;2.05;90.94;101014.53;4187994;28;19982;-85
2023/12/08 07:47:14;;;;;;;;;;;;;;;2.05;91.06;101015.38;4188327;28;20272;-86
2023/12/08 07:49:34;;;;;;;;;;;;;;;2.05;91.27;101006.53;4156091;28;19975;-85
2023/12/08 07:51:57;;;;;;;;;;;;;;;2.05;90.97;101009.19;4159081;28;20008;-85
2023/12/08 07:54:18;;;;;;;;;;;;;;;2.06;90.85;100994.91;4188211;28;19941;-86
2023/12/08 07:56:40;;;;;;;;;;;;;;;2.07;91.17;101002.78;4158637;28;20331;-87
2023/12/08 07:59:01;;;;;;;;;;;;;;;2.06;90.85;101002.91;4168401;28;20398;-85
2023/12/08 08:01:21;;;;;;;;;;;;;;;2.05;90.67;101004.69;4174214;28;19952;-86
2023/12/08 08:03:42;;;;;;;;;;;;;;;2.05;90.16;101004.69;4188516;28;19982;-87
2023/12/08 08:06:02;;;;;;;;;;;;;;;2.06;90.49;101002.91;4173653;28;19932;-87
2023/12/08 08:08:22;;;;;;;;;;;;;;;2.05;90.39;100996.72;4186664;28;19932;-85
2023/12/08 08:10:43;;;;;;;;;;;;;;;2.04;90.36;100996.81;4173404;28;20414;-85
2023/12/08 08:13:05;;;;;;;;;;;;;;;2.04;90.37;100989.72;4187119;28;19935;-87
2023/12/08 08:15:26;;;;;;;;;;;;;;;2.06;90.34;100986.94;4187878;28;19947;-87
2023/12/08 08:17:46;;;;;;;;;;;;;;;2.09;90.39;100987.53;4188081;28;19959;-87
2023/12/08 08:20:08;;;;;;;;;;;;;;;2.08;90.36;100983.16;4172478;28;19971;-86
2023/12/08 08:22:28;;;;;;;;;;;;;;;2.08;90.24;100988.50;4187029;28;20291;-87
2023/12/08 08:24:49;;;;;;;;;;;;;;;2.07;90.08;100984.16;4160578;28;19976;-87
2023/12/08 08:27:10;;;;;;;;;;;;;;;2.09;90.01;100984.88;4160623;28;19936;-88
2023/12/08 08:29:32;;;;;;;;;;;;;;;2.14;90.08;100979.19;4187441;28;19967;-88
2023/12/08 08:31:52;;;;;;;;;;;;;;;2.20;90.05;100968.06;4172965;28;19951;-87
2023/12/08 08:34:13;;;;;;;;;;;;;;;2.21;90.19;100974.25;4172499;28;20014;-87
2023/12/08 08:36:34;;;;;;;;;;;;;;;2.22;90.01;100967.94;4170797;28;19959;-88
2023/12/08 08:38:56;;;;;;;;;;;;;;;2.23;89.85;100969.66;4186810;28;19991;-88
2023/12/08 08:41:17;;;;;;;;;;;;;;;2.23;89.94;100972.31;4186805;28;19931;-87
2023/12/08 08:43:38;;;;;;;;;;;;;;;2.23;89.79;100978.50;4188043;28;19931;-88
2023/12/08 08:46:00;;;;;;;;;;;;;;;2.28;89.62;100986.97;4188001;28;19931;-87
2023/12/08 08:48:21;;;;;;;;;;;;;;;2.31;89.95;100978.75;4188350;28;20020;-87
2023/12/08 08:50:41;;;;;;;;;;;;;;;2.33;89.80;100970.63;4188216;28;19940;-86
2023/12/08 08:53:02;;;;;;;;;;;;;;;2.35;89.83;100974.03;4188080;28;19975;-84
2023/12/08 08:55:23;;;;;;;;;;;;;;;2.38;89.62;100970.28;4171765;28;20459;-84
2023/12/08 08:57:44;;;;;;;;;;;;;;;2.40;89.59;100966.53;4188470;28;19931;-85
2023/12/08 09:00:05;;;;;;;;;;;;;;;2.45;89.56;100960.84;4188066;28;19989;-84
2023/12/08 09:02:29;;;;;;;;;;;;;;;2.46;89.28;100965.19;4186958;28;19987;-87
2023/12/08 09:04:50;;;;;;;;;;;;;;;2.46;89.37;100968.75;4156668;28;19935;-87
2023/12/08 09:07:10;;;;;;;;;;;;;;;2.45;88.75;100967.03;4187030;28;19936;-85
2023/12/08 09:09:31;;;;;;;;;;;;;;;2.44;88.63;100970.66;4186302;28;19931;-85
2023/12/08 09:11:51;;;;;;;;;;;;;;;2.47;88.76;100973.06;4187108;28;19981;-87
2023/12/08 09:14:12;;;;;;;;;;;;;;;2.47;88.41;100973.06;4181577;28;19978;-87
2023/12/08 09:16:32;;;;;;;;;;;;;;;2.47;88.35;100970.41;4157711;28;20485;-88
2023/12/08 09:18:54;;;;;;;;;;;;;;;2.49;88.38;100970.28;4172999;28;19971;-89
2023/12/08 09:21:16;;;;;;;;;;;;;;;2.52;88.00;100968.25;4188771;28;19931;-86
2023/12/08 09:23:37;;;;;;;;;;;;;;;2.56;88.34;100960.88;4190984;28;20342;-88
2023/12/08 09:25:59;;;;;;;;;;;;;;;2.57;88.13;100959.91;4163352;28;19996;-85
2023/12/08 09:28:20;;;;;;;;;;;;;;;2.59;87.83;100960.63;4190091;28;20363;-87
2023/12/08 09:30:41;;;;;;;;;;;;;;;2.59;87.88;100957.97;4190041;28;20350;-87
2023/12/08 09:33:02;;;;;;;;;;;;;;;2.60;87.95;100964.13;4190014;28;19944;-86
2023/12/08 09:35:25;;;;;;;;;;;;;;;2.58;87.59;100966.91;4174701;28;20428;-87
2023/12/08 09:37:45;;;;;;;;;;;;;;;2.58;87.32;100952.75;4163191;28;20304;-85
2023/12/08 09:40:08;;;;;;;;;;;;;;;2.58;87.24;100950.91;4157829;28;19980;-85
2023/12/08 09:42:29;;;;;;;;;;;;;;;2.60;87.20;100942.78;4175395;28;19983;-85
2023/12/08 09:44:50;;;;;;;;;;;;;;;2.62;86.94;100939.06;4175266;28;19935;-86
2023/12/08 09:47:10;;;;;;;;;;;;;;;2.63;86.96;100931.88;4190710;28;19936;-85
2023/12/08 09:49:31;;;;;;;;;;;;;;;2.63;86.91;100931.88;4174878;28;20068;-85
2023/12/08 09:51:53;;;;;;;;;;;;;;;2.67;87.02;100925.34;4189524;28;20035;-85
2023/12/08 09:54:14;;;;;;;;;;;;;;;2.70;86.74;100919.78;4161419;28;19960;-86
2023/12/08 09:56:34;;;;;;;;;;;;;;;2.69;86.74;100921.59;4190679;28;19955;-85
2023/12/08 09:58:55;;;;;;;;;;;;;;;2.67;86.88;100925.34;4190392;28;19939;-86
2023/12/08 10:01:17;;;;;;;;;;;;;;;2.66;86.53;100926.31;4190090;28;19958;-86
2023/12/08 10:03:40;;;;;;;;;;;;;;;2.65;86.72;100935.28;4189806;28;20016;-85
2023/12/08 10:06:01;;;;;;;;;;;;;;;2.65;86.61;100925.47;4190319;28;19947;-87
2023/12/08 10:08:24;;;;;;;;;;;;;;;2.65;86.44;100916.59;4174648;28;19935;-88
2023/12/08 10:10:45;;;;;;;;;;;;;;;2.62;86.42;100914.22;4190301;28;19971;-85
2023/12/08 10:13:07;;;;;;;;;;;;;;;2.63;86.44;100902.56;4189432;28;19971;-85
2023/12/08 10:15:30;;;;;;;;;;;;;;;2.63;86.30;100897.22;4190214;28;19931;-86
2023/12/08 10:17:51;;;;;;;;;;;;;;;2.60;86.33;100898.34;4189455;28;19935;-90
2023/12/08 10:20:12;;;;;;;;;;;;;;;2.58;86.16;100894.91;4189998;28;19931;-84
2023/12/08 10:22:33;;;;;;;;;;;;;;;2.58;85.92;100899.41;4175757;28;19971;-84
2023/12/08 10:24:54;;;;;;;;;;;;;;;2.59;86.29;100887.78;4188965;28;20051;-87
2023/12/08 10:27:15;;;;;;;;;;;;;;;2.59;86.19;100888.63;4190389;28;19931;-84
2023/12/08 10:29:36;;;;;;;;;;;;;;;2.57;85.91;100887.03;4189776;28;20431;-85
2023/12/08 10:31:57;;;;;;;;;;;;;;;2.58;85.90;100883.41;4187972;28;20004;-85
2023/12/08 10:34:18;;;;;;;;;;;;;;;2.55;85.81;100881.00;4190195;28;20014;-85
2023/12/08 10:36:38;;;;;;;;;;;;;;;2.55;85.77;100889.00;4188541;28;19954;-85
2023/12/08 10:38:58;;;;;;;;;;;;;;;2.54;86.04;100880.16;4186500;28;19955;-85
2023/12/08 10:41:21;;;;;;;;;;;;;;;2.59;86.14;100877.13;4186296;28;19976;-85
2023/12/08 10:43:43;;;;;;;;;;;;;;;2.57;85.68;100873.72;4159711;28;20010;-85
2023/12/08 10:46:04;;;;;;;;;;;;;;;2.57;85.78;100882.56;4188895;28;19939;-85
2023/12/08 10:48:24;;;;;;;;;;;;;;;2.62;86.05;100876.88;4174663;28;20409;-84
2023/12/08 10:50:46;;;;;;;;;;;;;;;2.62;85.87;100875.06;4188764;28;19972;-86
2023/12/08 10:53:07;;;;;;;;;;;;;;;2.59;85.78;100869.97;4189159;28;20024;-85
2023/12/08 10:55:28;;;;;;;;;;;;;;;2.58;85.72;100870.91;4159088;28;20024;-86
2023/12/08 10:57:51;;;;;;;;;;;;;;;2.58;85.68;100867.41;4159889;28;20003;-85
2023/12/08 11:00:16;;;;;;;;;;;;;;;2.58;85.62;100865.59;4189390;28;19952;-88
2023/12/08 11:02:36;;;;;;;;;;;;;;;2.58;85.82;100864.75;4171616;28;20283;-85
2023/12/08 11:04:58;;;;;;;;;;;;;;;2.57;85.68;100860.38;4188641;28;19978;-86
2023/12/08 11:07:19;;;;;;;;;;;;;;;2.57;85.69;100860.38;4188304;28;20003;-85
2023/12/08 11:09:40;;;;;;;;;;;;;;;2.55;85.50;100859.66;4159479;28;20281;-89
2023/12/08 11:12:03;;;;;;;;;;;;;;;2.52;85.28;100861.63;4188861;28;19935;-85
2023/12/08 11:14:28;;;;;;;;;;;;;;;2.55;85.60;100860.50;4146996;28;19936;-84
2023/12/08 11:16:50;;;;;;;;;;;;;;;2.56;85.82;100856.03;4188747;28;20465;-84
2023/12/08 11:19:11;;;;;;;;;;;;;;;2.56;85.47;100858.69;4174584;28;20011;-84
2023/12/08 11:21:32;;;;;;;;;;;;;;;2.55;85.57;100859.66;4190207;28;20007;-89
2023/12/08 11:23:53;;;;;;;;;;;;;;;2.55;85.41;100855.16;4159007;28;19935;-85
2023/12/08 11:26:16;;;;;;;;;;;;;;;2.53;85.40;100849.97;4189277;28;20390;-85
2023/12/08 11:28:39;;;;;;;;;;;;;;;2.56;85.53;100846.22;4189905;28;19975;-86
2023/12/08 11:31:02;;;;;;;;;;;;;;;2.58;85.83;100844.25;4188063;28;19935;-87
2023/12/08 11:33:24;;;;;;;;;;;;;;;2.59;85.62;100850.47;4188790;28;19955;-85
2023/12/08 11:35:50;;;;;;;;;;;;;;;2.56;85.52;100835.53;4188517;28;20271;-85
2023/12/08 11:38:10;;;;;;;;;;;;;;;2.58;85.65;100832.75;4187257;28;20027;-84
2023/12/08 11:40:31;;;;;;;;;;;;;;;2.53;85.22;100830.44;4172735;28;19974;-85
2023/12/08 11:42:53;;;;;;;;;;;;;;;2.58;85.50;100824.75;4187571;28;19982;-87
2023/12/08 11:45:14;;;;;;;;;;;;;;;2.56;85.54;100832.88;4187168;28;19932;-84
2023/12/08 11:47:36;;;;;;;;;;;;;;;2.52;85.20;100826.94;4188400;28;20002;-86
2023/12/08 11:49:56;;;;;;;;;;;;;;;2.53;85.37;100827.78;4187437;28;19935;-85
2023/12/08 11:52:19;;;;;;;;;;;;;;;2.54;85.65;100832.16;4174823;28;19956;-86
2023/12/08 11:54:53;;;;;;;;;;;;;;;2.52;85.06;100823.41;4188132;28;19932;-87
2023/12/08 11:57:14;;;;;;;;;;;;;;;2.53;85.22;100817.13;4166220;28;20429;-86
2023/12/08 11:59:38;;;;;;;;;;;;;;;2.53;85.17;100819.78;4187919;28;20020;-85
2023/12/08 12:01:58;;;;;;;;;;;;;;;2.52;85.34;100816.28;4186711;28;20287;-87
2023/12/08 12:04:20;;;;;;;;;;;;;;;2.52;84.98;100824.28;4174391;28;20327;-85
2023/12/08 12:06:41;;;;;;;;;;;;;;;2.49;84.63;100808.53;4187795;28;19932;-85
2023/12/08 12:09:03;;;;;;;;;;;;;;;2.51;84.92;100814.59;4188156;28;19936;-86
2023/12/08 12:11:25;;;;;;;;;;;;;;;2.47;84.92;100815.78;4173097;28;20031;-87
2023/12/08 12:13:45;;;;;;;;;;;;;;;2.48;84.54;100814.81;4187490;28;19935;-85
2023/12/08 12:16:06;;;;;;;;;;;;;;;2.49;85.00;100819.19;4189398;28;19949;-89
2023/12/08 12:18:28;;;;;;;;;;;;;;;2.51;85.41;100817.25;4172190;28;19992;-86
2023/12/08 12:20:50;;;;;;;;;;;;;;;2.53;85.11;100828.63;4188473;28;20018;-86